createdAt,value
2018-04-08T00:00:39.304Z,10.34
2018-04-08T00:01:49.444Z,10.33
2018-04-08T00:02:59.696Z,10.33
2018-04-08T00:04:09.891Z,10.17
2018-04-08T00:05:20.090Z,10.19
2018-04-08T00:06:30.293Z,10.19
2018-04-08T00:07:40.509Z,10.19
2018-04-08T00:08:50.684Z,10.15
2018-04-08T00:10:00.823Z,10.13
2018-04-08T00:11:10.970Z,10.18
2018-04-08T00:12:21.150Z,10.11
2018-04-08T00:13:31.316Z,10.15
2018-04-08T00:14:41.452Z,10.19
2018-04-08T00:15:51.481Z,10.15
2018-04-08T00:17:01.633Z,10.13
2018-04-08T00:18:12.291Z,10.05
2018-04-08T00:19:22.489Z,10.13
2018-04-08T00:20:32.639Z,9.98
2018-04-08T00:21:42.767Z,10.07
2018-04-08T00:22:53.095Z,10
2018-04-08T00:24:03.247Z,10.02
2018-04-08T00:25:13.417Z,9.99
2018-04-08T00:26:23.601Z,9.98
2018-04-08T00:27:33.822Z,9.98
2018-04-08T00:28:44.004Z,9.93
2018-04-08T00:29:54.208Z,9.83
2018-04-08T00:31:04.383Z,9.84
2018-04-08T00:32:14.205Z,9.91
2018-04-08T00:33:24.448Z,9.91
2018-04-08T00:34:34.719Z,9.88
2018-04-08T00:35:44.915Z,9.85
2018-04-08T00:36:55.086Z,9.84
2018-04-08T00:38:05.018Z,9.84
2018-04-08T00:39:46.771Z,9.88
2018-04-08T00:40:56.915Z,9.84
2018-04-08T00:42:07.100Z,9.81
2018-04-08T00:43:17.360Z,9.75
2018-04-08T00:44:27.681Z,9.84
2018-04-08T00:45:37.931Z,9.85
2018-04-08T00:46:48.096Z,9.74
2018-04-08T00:47:58.313Z,9.74
2018-04-08T00:49:08.601Z,9.73
2018-04-08T00:50:18.739Z,9.75
2018-04-08T00:51:28.884Z,9.83
2018-04-08T00:52:38.802Z,9.8
2018-04-08T00:53:48.222Z,9.74
2018-04-08T00:54:57.901Z,9.78
2018-04-08T00:56:07.787Z,9.78
2018-04-08T00:57:18.117Z,9.8
2018-04-08T00:58:28.058Z,9.73
2018-04-08T00:59:38.218Z,9.73
2018-04-08T01:00:48.402Z,9.66
2018-04-08T01:01:58.640Z,9.7
2018-04-08T01:03:08.682Z,9.74
2018-04-08T01:04:18.637Z,9.73
2018-04-08T01:05:28.762Z,9.63
2018-04-08T01:06:38.643Z,9.63
2018-04-08T01:07:48.769Z,9.65
2018-04-08T01:08:58.971Z,9.62
2018-04-08T01:10:08.919Z,9.63
2018-04-08T01:11:18.858Z,9.63
2018-04-08T01:12:29.027Z,9.59
2018-04-08T01:13:39.230Z,9.59
2018-04-08T01:14:48.874Z,9.62
2018-04-08T01:15:59.027Z,9.66
2018-04-08T01:17:08.918Z,9.6
2018-04-08T01:18:19.078Z,9.6
2018-04-08T01:19:29.241Z,9.66
2018-04-08T01:20:39.268Z,9.58
2018-04-08T01:21:49.453Z,9.5
2018-04-08T01:22:59.629Z,9.5
2018-04-08T01:24:09.524Z,9.56
2018-04-08T01:25:19.669Z,9.5
2018-04-08T01:26:30.011Z,9.55
2018-04-08T01:27:40.150Z,9.58
2018-04-08T01:28:50.187Z,9.5
2018-04-08T01:30:00.456Z,9.56
2018-04-08T01:31:10.663Z,9.5
2018-04-08T01:32:20.848Z,9.4
2018-04-08T01:33:30.980Z,9.41
2018-04-08T01:34:41.112Z,9.4
2018-04-08T01:35:51.276Z,9.4
2018-04-08T01:37:01.434Z,9.42
2018-04-08T01:38:11.621Z,9.4
2018-04-08T01:39:21.814Z,9.42
2018-04-08T01:40:32.018Z,9.47
2018-04-08T01:41:42.209Z,9.34
2018-04-08T01:42:52.101Z,9.27
2018-04-08T01:44:02.243Z,9.34
2018-04-08T01:45:12.383Z,9.29
2018-04-08T01:46:21.890Z,9.26
2018-04-08T01:47:31.546Z,9.34
2018-04-08T01:48:41.675Z,9.27
2018-04-08T01:49:51.601Z,9.27
2018-04-08T01:51:01.474Z,9.23
2018-04-08T01:52:11.678Z,9.26
2018-04-08T01:53:21.855Z,9.22
2018-04-08T01:54:31.861Z,9.15
2018-04-08T01:55:42.007Z,9.22
2018-04-08T01:56:52.207Z,9.19
2018-04-08T01:58:02.474Z,9.08
2018-04-08T01:59:13.621Z,9.08
2018-04-08T02:00:23.817Z,9.11
2018-04-08T02:01:34.043Z,9.02
2018-04-08T02:02:44.193Z,9.11
2018-04-08T02:03:54.502Z,9.04
2018-04-08T02:05:04.694Z,9
2018-04-08T02:06:14.930Z,9.11
2018-04-08T02:07:25.213Z,9.12
2018-04-08T02:08:35.434Z,9.07
2018-04-08T02:09:45.670Z,9.12
2018-04-08T02:10:55.489Z,8.98
2018-04-08T02:12:05.638Z,9.05
2018-04-08T02:13:15.770Z,9.04
2018-04-08T02:14:26.001Z,8.93
2018-04-08T02:15:36.218Z,9
2018-04-08T02:16:46.506Z,9
2018-04-08T02:17:56.647Z,9.05
2018-04-08T02:19:06.553Z,8.9
2018-04-08T02:20:16.498Z,9
2018-04-08T02:21:26.712Z,9.05
2018-04-08T02:22:36.879Z,8.87
2018-04-08T02:23:47.017Z,9
2018-04-08T02:24:56.556Z,8.97
2018-04-08T02:26:06.816Z,8.95
2018-04-08T02:27:16.417Z,8.92
2018-04-08T02:28:26.286Z,9
2018-04-08T02:29:36.524Z,8.89
2018-04-08T02:30:46.676Z,8.86
2018-04-08T02:31:56.987Z,8.79
2018-04-08T02:33:06.870Z,8.79
2018-04-08T02:34:16.701Z,8.79
2018-04-08T02:35:26.860Z,8.82
2018-04-08T02:36:37.024Z,8.74
2018-04-08T02:37:47.198Z,8.71
2018-04-08T02:38:57.341Z,8.68
2018-04-08T02:40:07.163Z,8.7
2018-04-08T02:41:17.161Z,8.75
2018-04-08T02:42:27.281Z,8.68
2018-04-08T02:43:37.176Z,8.68
2018-04-08T02:44:47.114Z,8.64
2018-04-08T02:45:56.888Z,8.68
2018-04-08T02:47:07.035Z,8.58
2018-04-08T02:48:16.895Z,8.63
2018-04-08T02:49:26.770Z,8.74
2018-04-08T02:50:36.711Z,8.67
2018-04-08T02:51:46.351Z,8.71
2018-04-08T02:52:56.508Z,8.71
2018-04-08T02:54:06.708Z,8.75
2018-04-08T02:55:16.582Z,8.71
2018-04-08T02:56:26.460Z,8.74
2018-04-08T02:57:36.583Z,8.6
2018-04-08T02:58:46.733Z,8.63
2018-04-08T02:59:56.419Z,8.64
2018-04-08T03:01:06.320Z,8.58
2018-04-08T03:02:16.465Z,8.55
2018-04-08T03:03:26.082Z,8.63
2018-04-08T03:04:36.029Z,8.52
2018-04-08T03:05:46.204Z,8.57
2018-04-08T03:06:56.332Z,8.49
2018-04-08T03:08:06.492Z,8.43
2018-04-08T03:09:16.763Z,8.53
2018-04-08T03:10:26.910Z,8.63
2018-04-08T03:11:37.033Z,8.5
2018-04-08T03:12:47.310Z,8.53
2018-04-08T03:13:57.185Z,8.58
2018-04-08T03:15:07.341Z,8.58
2018-04-08T03:16:17.386Z,8.52
2018-04-08T03:17:27.024Z,8.35
2018-04-08T03:18:37.162Z,8.43
2018-04-08T03:19:47.318Z,8.35
2018-04-08T03:20:57.238Z,8.39
2018-04-08T03:22:07.716Z,8.42
2018-04-08T03:23:17.598Z,8.42
2018-04-08T03:24:27.449Z,8.39
2018-04-08T03:25:37.365Z,8.4
2018-04-08T03:26:47.379Z,8.3
2018-04-08T03:27:57.521Z,8.31
2018-04-08T03:29:07.427Z,8.39
2018-04-08T03:30:17.578Z,8.39
2018-04-08T03:31:27.747Z,8.37
2018-04-08T03:32:37.792Z,8.34
2018-04-08T03:33:47.701Z,8.34
2018-04-08T03:34:57.578Z,8.39
2018-04-08T03:36:07.468Z,8.42
2018-04-08T03:37:17.342Z,8.31
2018-04-08T03:38:27.505Z,8.35
2018-04-08T03:39:37.655Z,8.3
2018-04-08T03:40:47.549Z,8.28
2018-04-08T03:41:57.594Z,8.34
2018-04-08T03:43:07.800Z,8.27
2018-04-08T03:44:18.140Z,8.25
2018-04-08T03:45:28.316Z,8.21
2018-04-08T03:46:38.527Z,8.15
2018-04-08T03:47:48.706Z,8.21
2018-04-08T03:48:58.601Z,8.13
2018-04-08T03:50:08.387Z,8.12
2018-04-08T03:51:18.521Z,8.16
2018-04-08T03:52:28.701Z,8.07
2018-04-08T03:53:38.575Z,8.16
2018-04-08T03:54:48.737Z,8.15
2018-04-08T03:55:58.861Z,8.16
2018-04-08T03:57:09.012Z,8.15
2018-04-08T03:58:18.695Z,8.15
2018-04-08T03:59:28.862Z,8.13
2018-04-08T04:00:39.142Z,8.15
2018-04-08T04:01:49.027Z,8.16
2018-04-08T04:02:59.187Z,8.21
2018-04-08T04:04:09.329Z,8.21
2018-04-08T04:05:19.240Z,8.17
2018-04-08T04:06:29.429Z,8.12
2018-04-08T04:07:39.544Z,8.16
2018-04-08T04:08:49.830Z,7.98
2018-04-08T04:10:00.019Z,8.03
2018-04-08T04:11:09.931Z,8.05
2018-04-08T04:12:20.071Z,8.03
2018-04-08T04:13:30.202Z,8.03
2018-04-08T04:14:40.369Z,7.97
2018-04-08T04:15:50.579Z,7.98
2018-04-08T04:17:00.507Z,7.97
2018-04-08T04:18:10.622Z,7.97
2018-04-08T04:19:20.838Z,8.09
2018-04-08T04:20:31.055Z,8.12
2018-04-08T04:21:40.968Z,8.02
2018-04-08T04:22:50.844Z,8.12
2018-04-08T04:24:00.652Z,8.12
2018-04-08T04:25:10.911Z,8.05
2018-04-08T04:26:20.784Z,8.02
2018-04-08T04:27:30.694Z,8.03
2018-04-08T04:28:40.856Z,7.91
2018-04-08T04:29:50.977Z,8.02
2018-04-08T04:31:00.911Z,7.87
2018-04-08T04:32:10.955Z,7.88
2018-04-08T04:33:21.074Z,7.88
2018-04-08T04:34:31.177Z,7.85
2018-04-08T04:35:41.428Z,7.84
2018-04-08T04:36:51.170Z,7.8
2018-04-08T04:38:00.978Z,7.87
2018-04-08T04:39:10.926Z,7.88
2018-04-08T04:40:21.094Z,7.9
2018-04-08T04:41:30.997Z,7.84
2018-04-08T04:42:40.874Z,7.85
2018-04-08T04:43:51.029Z,7.82
2018-04-08T04:45:00.905Z,7.84
2018-04-08T04:46:10.708Z,7.82
2018-04-08T04:47:20.336Z,7.85
2018-04-08T04:48:30.481Z,7.77
2018-04-08T04:49:40.683Z,7.76
2018-04-08T04:50:50.550Z,7.8
2018-04-08T04:52:00.701Z,7.77
2018-04-08T04:53:10.892Z,7.8
2018-04-08T04:54:20.789Z,7.76
2018-04-08T04:55:30.918Z,7.79
2018-04-08T04:56:40.791Z,7.76
2018-04-08T04:57:50.941Z,7.82
2018-04-08T04:59:01.084Z,7.76
2018-04-08T05:00:11.221Z,7.79
2018-04-08T05:01:21.419Z,7.84
2018-04-08T05:02:31.622Z,7.79
2018-04-08T05:03:41.566Z,7.82
2018-04-08T05:04:51.629Z,7.79
2018-04-08T05:06:01.086Z,7.72
2018-04-08T05:07:10.978Z,7.76
2018-04-08T05:08:20.867Z,7.7
2018-04-08T05:09:31.027Z,7.76
2018-04-08T05:10:41.192Z,7.7
2018-04-08T05:11:51.096Z,7.77
2018-04-08T05:13:01.241Z,7.7
2018-04-08T05:14:11.478Z,7.67
2018-04-08T05:15:21.344Z,7.76
2018-04-08T05:16:31.552Z,7.76
2018-04-08T05:17:41.713Z,7.7
2018-04-08T05:18:51.910Z,7.8
2018-04-08T05:20:02.068Z,7.84
2018-04-08T05:21:11.972Z,7.82
2018-04-08T05:22:22.137Z,7.76
2018-04-08T05:23:32.281Z,7.72
2018-04-08T05:24:42.197Z,7.64
2018-04-08T05:25:52.416Z,7.67
2018-04-08T05:27:01.938Z,7.67
2018-04-08T05:28:12.173Z,7.73
2018-04-08T05:29:22.044Z,7.76
2018-04-08T05:30:32.182Z,7.73
2018-04-08T05:31:42.323Z,7.74
2018-04-08T05:32:52.222Z,7.72
2018-04-08T05:34:01.967Z,7.74
2018-04-08T05:35:11.753Z,7.82
2018-04-08T05:36:21.786Z,7.9
2018-04-08T05:37:31.728Z,7.82
2018-04-08T05:38:41.907Z,7.77
2018-04-08T05:39:52.089Z,7.8
2018-04-08T05:41:02.054Z,7.76
2018-04-08T05:42:12.319Z,7.82
2018-04-08T05:43:22.199Z,7.8
2018-04-08T05:44:32.384Z,7.87
2018-04-08T05:45:42.439Z,7.82
2018-04-08T05:46:52.568Z,7.82
2018-04-08T05:48:02.700Z,7.87
2018-04-08T05:49:12.863Z,7.85
2018-04-08T05:50:22.390Z,7.8
2018-04-08T05:51:32.403Z,7.8
2018-04-08T05:52:42.588Z,7.8
2018-04-08T05:53:52.291Z,7.82
2018-04-08T05:55:02.498Z,7.84
2018-04-08T05:56:12.404Z,7.87
2018-04-08T05:57:22.615Z,7.91
2018-04-08T05:58:32.522Z,7.88
2018-04-08T05:59:42.994Z,7.84
2018-04-08T06:00:52.819Z,7.88
2018-04-08T06:02:02.629Z,7.87
2018-04-08T06:03:13.068Z,7.92
2018-04-08T06:04:23.215Z,7.92
2018-04-08T06:05:33.149Z,7.91
2018-04-08T06:06:43.277Z,7.92
2018-04-08T06:07:53.439Z,8.03
2018-04-08T06:09:03.594Z,8.05
2018-04-08T06:10:13.815Z,7.99
2018-04-08T06:11:23.793Z,8.03
2018-04-08T06:12:33.988Z,8.12
2018-04-08T06:13:43.875Z,8.1
2018-04-08T06:14:54.128Z,8.15
2018-04-08T06:16:04.043Z,8.21
2018-04-08T06:17:13.925Z,8.23
2018-04-08T06:18:24.145Z,8.15
2018-04-08T06:19:34.303Z,8.16
2018-04-08T06:20:44.327Z,8.25
2018-04-08T06:21:54.625Z,8.24
2018-04-08T06:23:04.886Z,8.25
2018-04-08T06:24:15.030Z,8.32
2018-04-08T06:25:25.242Z,8.34
2018-04-08T06:26:35.499Z,8.48
2018-04-08T06:27:45.693Z,8.35
2018-04-08T06:28:55.300Z,8.42
2018-04-08T06:30:05.600Z,8.52
2018-04-08T06:31:15.392Z,8.42
2018-04-08T06:32:25.627Z,8.49
2018-04-08T06:33:35.888Z,8.55
2018-04-08T06:34:46.110Z,8.58
2018-04-08T06:35:56.298Z,8.6
2018-04-08T06:37:06.529Z,8.67
2018-04-08T06:38:16.804Z,8.75
2018-04-08T06:39:26.716Z,8.74
2018-04-08T06:40:37.161Z,8.93
2018-04-08T06:41:47.052Z,8.9
2018-04-08T06:42:57.196Z,8.83
2018-04-08T06:44:07.354Z,8.93
2018-04-08T06:45:17.592Z,9.04
2018-04-08T06:46:27.762Z,8.98
2018-04-08T06:47:37.685Z,8.98
2018-04-08T06:48:47.867Z,9
2018-04-08T06:49:58.012Z,9.08
2018-04-08T06:51:08.227Z,9.09
2018-04-08T06:52:18.135Z,9.22
2018-04-08T06:53:28.020Z,9.26
2018-04-08T06:54:38.179Z,9.26
2018-04-08T06:55:48.093Z,9.3
2018-04-08T06:56:58.376Z,9.34
2018-04-08T06:58:08.190Z,9.35
2018-04-08T06:59:18.388Z,9.45
2018-04-08T07:00:28.549Z,9.4
2018-04-08T07:01:38.475Z,9.4
2018-04-08T07:02:48.288Z,9.42
2018-04-08T07:03:58.112Z,9.55
2018-04-08T07:05:08.035Z,9.52
2018-04-08T07:06:17.992Z,9.63
2018-04-08T07:07:27.915Z,9.67
2018-04-08T07:08:37.732Z,9.74
2018-04-08T07:09:47.898Z,9.75
2018-04-08T07:10:57.849Z,9.81
2018-04-08T07:12:08.152Z,9.84
2018-04-08T07:13:18.547Z,9.91
2018-04-08T07:14:29.786Z,9.91
2018-04-08T07:15:39.961Z,9.95
2018-04-08T07:16:50.245Z,9.99
2018-04-08T07:18:00.492Z,10.08
2018-04-08T07:19:10.647Z,10.02
2018-04-08T07:20:20.865Z,10.13
2018-04-08T07:21:31.124Z,10.13
2018-04-08T07:22:41.288Z,10.22
2018-04-08T07:23:51.475Z,10.3
2018-04-08T07:25:01.253Z,10.33
2018-04-08T07:26:11.183Z,10.29
2018-04-08T07:27:21.396Z,10.34
2018-04-08T07:28:31.637Z,10.34
2018-04-08T07:29:41.639Z,10.39
2018-04-08T07:30:52.813Z,10.43
2018-04-08T07:32:02.670Z,10.45
2018-04-08T07:33:12.363Z,10.58
2018-04-08T07:34:22.378Z,10.55
2018-04-08T07:35:32.782Z,10.55
2018-04-08T07:36:42.380Z,10.65
2018-04-08T07:37:52.578Z,10.58
2018-04-08T07:39:02.798Z,10.69
2018-04-08T07:40:12.687Z,10.69
2018-04-08T07:41:22.906Z,10.76
2018-04-08T07:42:33.125Z,10.8
2018-04-08T07:43:43.309Z,10.88
2018-04-08T07:44:53.543Z,10.91
2018-04-08T07:46:03.342Z,10.97
2018-04-08T07:47:13.302Z,11.1
2018-04-08T07:48:23.698Z,11.09
2018-04-08T07:49:33.943Z,11.15
2018-04-08T07:50:44.164Z,11.3
2018-04-08T07:51:54.350Z,11.43
2018-04-08T07:53:04.512Z,11.43
2018-04-08T07:54:14.694Z,11.59
2018-04-08T07:55:24.992Z,11.8
2018-04-08T07:56:35.256Z,11.91
2018-04-08T07:57:45.475Z,12.09
2018-04-08T07:58:55.703Z,12.34
2018-04-08T08:00:05.947Z,12.63
2018-04-08T08:01:16.159Z,13.63
2018-04-08T08:02:26.366Z,14.48
2018-04-08T08:03:36.539Z,15.4
2018-04-08T08:04:46.721Z,15.99
2018-04-08T08:05:56.982Z,16.57
2018-04-08T08:07:07.210Z,17.06
2018-04-08T08:08:19.330Z,17.61
2018-04-08T08:09:29.647Z,17.98
2018-04-08T08:10:40.053Z,18.42
2018-04-08T08:11:50.222Z,18.73
2018-04-08T08:13:00.403Z,18.94
2018-04-08T08:14:10.578Z,19.15
2018-04-08T08:15:20.739Z,19.39
2018-04-08T08:16:30.939Z,19.61
2018-04-08T08:17:41.251Z,19.76
2018-04-08T08:18:51.628Z,20.01
2018-04-08T08:20:01.803Z,20.11
2018-04-08T08:21:12.012Z,20.24
2018-04-08T08:22:22.245Z,20.31
2018-04-08T08:23:32.496Z,20.42
2018-04-08T08:24:43.808Z,20.53
2018-04-08T08:25:53.938Z,20.58
2018-04-08T08:27:04.113Z,20.82
2018-04-08T08:28:14.356Z,20.86
2018-04-08T08:29:24.323Z,20.79
2018-04-08T08:30:34.542Z,20.88
2018-04-08T08:31:44.707Z,20.82
2018-04-08T08:32:54.993Z,20.97
2018-04-08T08:34:05.265Z,21.09
2018-04-08T08:35:15.190Z,21.16
2018-04-08T08:36:25.278Z,21.34
2018-04-08T08:37:35.483Z,21.35
2018-04-08T08:38:45.977Z,21.45
2018-04-08T08:39:56.136Z,21.43
2018-04-08T08:41:06.320Z,21.31
2018-04-08T08:42:16.639Z,21.45
2018-04-08T08:43:27.233Z,21.57
2018-04-08T08:44:37.445Z,21.72
2018-04-08T08:45:48.065Z,21.87
2018-04-08T08:46:58.333Z,21.98
2018-04-08T08:48:09.386Z,22.18
2018-04-08T08:49:19.648Z,22.35
2018-04-08T08:50:29.296Z,22.63
2018-04-08T08:51:39.543Z,22.78
2018-04-08T08:52:49.861Z,22.73
2018-04-08T08:53:59.816Z,22.65
2018-04-08T08:55:09.984Z,22.55
2018-04-08T08:56:20.169Z,22.45
2018-04-08T08:57:30.558Z,22.39
2018-04-08T08:58:40.556Z,22.34
2018-04-08T08:59:50.421Z,22.26
2018-04-08T09:01:00.600Z,22.42
2018-04-08T09:02:11.983Z,22.64
2018-04-08T09:03:30.933Z,22.93
2018-04-08T09:04:41.967Z,22.99
2018-04-08T09:05:52.148Z,22.83
2018-04-08T09:07:02.338Z,22.71
2018-04-08T09:08:12.562Z,22.76
2018-04-08T09:09:22.567Z,22.68
2018-04-08T09:10:32.775Z,22.78
2018-04-08T09:11:43.465Z,22.89
2018-04-08T09:12:54.177Z,22.93
2018-04-08T09:14:04.036Z,22.79
2018-04-08T09:15:14.334Z,22.7
2018-04-08T09:16:24.294Z,22.75
2018-04-08T09:17:34.559Z,22.67
2018-04-08T09:18:44.766Z,22.73
2018-04-08T09:19:55.318Z,22.85
2018-04-08T09:21:05.604Z,22.7
2018-04-08T09:22:15.826Z,22.64
2018-04-08T09:23:26.007Z,22.49
2018-04-08T09:24:36.197Z,22.45
2018-04-08T09:25:46.220Z,22.24
2018-04-08T09:26:56.434Z,22.12
2018-04-08T09:28:06.839Z,22.11
2018-04-08T09:29:17.138Z,22.05
2018-04-08T09:30:28.611Z,22.21
2018-04-08T09:31:38.821Z,22.26
2018-04-08T09:32:48.730Z,22.31
2018-04-08T09:33:58.662Z,22.48
2018-04-08T09:35:09.129Z,22.4
2018-04-08T09:36:20.350Z,22.27
2018-04-08T09:37:30.858Z,22.18
2018-04-08T09:38:41.075Z,22.15
2018-04-08T09:39:51.348Z,22.24
2018-04-08T09:41:01.615Z,22.28
2018-04-08T09:42:12.053Z,22.34
2018-04-08T09:43:22.012Z,22.68
2018-04-08T09:44:31.878Z,23.06
2018-04-08T09:45:42.153Z,23.16
2018-04-08T09:46:52.374Z,23.05
2018-04-08T09:48:02.589Z,22.86
2018-04-08T09:49:12.443Z,22.82
2018-04-08T09:50:22.640Z,23.02
2018-04-08T09:51:32.837Z,23.09
2018-04-08T09:52:43.019Z,23.31
2018-04-08T09:53:53.296Z,23.48
2018-04-08T09:55:03.694Z,23.63
2018-04-08T09:56:13.955Z,23.58
2018-04-08T09:57:24.203Z,23.5
2018-04-08T09:58:34.442Z,23.38
2018-04-08T09:59:44.100Z,23.39
2018-04-08T10:00:54.432Z,23.43
2018-04-08T10:02:04.647Z,23.57
2018-04-08T10:03:14.837Z,23.42
2018-04-08T10:04:25.042Z,23.17
2018-04-08T10:05:34.893Z,23.11
2018-04-08T10:06:45.432Z,22.9
2018-04-08T10:07:56.218Z,22.63
2018-04-08T10:09:24.326Z,22.55
2018-04-08T10:10:35.766Z,22.49
2018-04-08T10:11:45.690Z,22.3
2018-04-08T10:12:55.844Z,22.18
2018-04-08T10:14:05.943Z,22.18
2018-04-08T10:15:15.506Z,22.21
2018-04-08T10:16:25.808Z,22.05
2018-04-08T10:17:35.649Z,21.91
2018-04-08T10:18:45.783Z,21.88
2018-04-08T10:19:56.036Z,21.94
2018-04-08T10:21:06.002Z,21.94
2018-04-08T10:22:16.223Z,21.98
2018-04-08T10:23:26.196Z,22.12
2018-04-08T10:24:36.443Z,22.18
2018-04-08T10:25:46.358Z,22.31
2018-04-08T10:26:56.535Z,22.52
2018-04-08T10:28:07.046Z,22.43
2018-04-08T10:29:17.581Z,22.49
2018-04-08T10:30:28.090Z,22.53
2018-04-08T10:31:38.059Z,22.68
2018-04-08T10:32:48.338Z,22.79
2018-04-08T10:33:58.251Z,22.85
2018-04-08T10:35:08.208Z,23.03
2018-04-08T10:36:18.410Z,23.16
2018-04-08T10:37:28.774Z,23.32
2018-04-08T10:38:39.237Z,23.48
2018-04-08T10:39:51.628Z,23.53
2018-04-08T10:41:05.505Z,23.7
2018-04-08T10:42:15.718Z,23.79
2018-04-08T10:43:25.711Z,23.77
2018-04-08T10:44:35.885Z,23.77
2018-04-08T10:45:46.161Z,23.77
2018-04-08T10:46:56.899Z,23.69
2018-04-08T10:48:07.182Z,23.61
2018-04-08T10:49:17.228Z,23.45
2018-04-08T10:50:28.092Z,23.31
2018-04-08T10:51:39.979Z,23.55
2018-04-08T10:52:52.423Z,23.68
2018-04-08T10:54:02.640Z,23.76
2018-04-08T10:55:12.928Z,23.48
2018-04-08T10:56:23.178Z,23.4
2018-04-08T10:57:33.359Z,23.2
2018-04-08T10:58:43.591Z,23.14
2018-04-08T10:59:53.932Z,23.09
2018-04-08T11:01:04.162Z,23.2
2018-04-08T11:02:14.335Z,23.16
2018-04-08T11:03:25.037Z,23.17
2018-04-08T11:04:36.363Z,23.21
2018-04-08T11:05:46.816Z,23.16
2018-04-08T11:06:57.294Z,23.16
2018-04-08T11:08:07.701Z,23.09
2018-04-08T11:09:18.129Z,23.23
2018-04-08T11:10:28.384Z,23.17
2018-04-08T11:11:38.630Z,23.16
2018-04-08T11:12:49.159Z,23.03
2018-04-08T11:13:59.502Z,23.13
2018-04-08T11:15:09.799Z,23.21
2018-04-08T11:16:20.019Z,23.31
2018-04-08T11:17:30.255Z,23.38
2018-04-08T11:18:40.432Z,23.28
2018-04-08T11:19:50.645Z,23.21
2018-04-08T11:21:00.918Z,23.32
2018-04-08T11:22:11.132Z,23.45
2018-04-08T11:23:21.396Z,23.45
2018-04-08T11:24:31.644Z,23.42
2018-04-08T11:25:41.848Z,23.32
2018-04-08T11:26:52.093Z,23.35
2018-04-08T11:28:02.299Z,23.31
2018-04-08T11:29:12.764Z,23.4
2018-04-08T11:30:23.046Z,23.39
2018-04-08T11:31:33.513Z,23.38
2018-04-08T11:32:43.971Z,23.21
2018-04-08T11:33:54.286Z,23.05
2018-04-08T11:35:04.501Z,22.99
2018-04-08T11:36:14.786Z,22.99
2018-04-08T11:37:25.113Z,22.98
2018-04-08T11:38:35.319Z,23.17
2018-04-08T11:39:45.270Z,23.2
2018-04-08T11:40:55.465Z,23.17
2018-04-08T11:42:05.696Z,23.06
2018-04-08T11:43:15.910Z,22.99
2018-04-08T11:44:26.374Z,22.98
2018-04-08T11:45:36.581Z,22.8
2018-04-08T11:46:46.808Z,22.7
2018-04-08T11:47:57.133Z,22.7
2018-04-08T11:49:07.411Z,22.78
2018-04-08T11:50:17.280Z,22.8
2018-04-08T11:51:27.482Z,22.87
2018-04-08T11:52:37.412Z,22.76
2018-04-08T11:53:47.624Z,22.87
2018-04-08T11:54:57.824Z,23.02
2018-04-08T11:56:07.833Z,23.21
2018-04-08T11:57:17.756Z,23.09
2018-04-08T11:58:27.629Z,23.02
2018-04-08T11:59:37.366Z,23.18
2018-04-08T12:00:49.520Z,23.09
2018-04-08T12:02:05.480Z,23.05
2018-04-08T12:03:16.751Z,23.06
2018-04-08T12:04:26.969Z,23.03
2018-04-08T12:05:36.557Z,23.11
2018-04-08T12:06:46.481Z,23.01
2018-04-08T12:07:56.913Z,22.87
2018-04-08T12:09:06.857Z,22.78
2018-04-08T12:10:16.822Z,22.8
2018-04-08T12:11:26.790Z,22.8
2018-04-08T12:12:37.020Z,22.96
2018-04-08T12:13:47.300Z,23.11
2018-04-08T12:14:57.541Z,23.11
2018-04-08T12:16:07.791Z,23.2
2018-04-08T12:17:18.004Z,23.16
2018-04-08T12:18:27.550Z,23.27
2018-04-08T12:19:37.735Z,23.24
2018-04-08T12:20:48.075Z,23.23
2018-04-08T12:21:58.256Z,23.17
2018-04-08T12:23:08.510Z,23.13
2018-04-08T12:24:18.719Z,23.16
2018-04-08T12:25:28.980Z,23.02
2018-04-08T12:26:40.520Z,22.9
2018-04-08T12:27:53.666Z,22.82
2018-04-08T12:29:03.931Z,22.73
2018-04-08T12:30:13.910Z,22.67
2018-04-08T12:31:24.270Z,22.68
2018-04-08T12:32:34.256Z,22.52
2018-04-08T12:33:44.264Z,22.48
2018-04-08T12:34:54.588Z,22.42
2018-04-08T12:36:05.131Z,22.26
2018-04-08T12:37:15.435Z,22.3
2018-04-08T12:38:25.655Z,22.18
2018-04-08T12:39:36.155Z,22.3
2018-04-08T12:40:46.398Z,22.34
2018-04-08T12:41:56.816Z,22.26
2018-04-08T12:43:06.980Z,22.18
2018-04-08T12:44:16.671Z,22.09
2018-04-08T12:45:27.084Z,22.08
2018-04-08T12:46:37.339Z,22.01
2018-04-08T12:47:47.518Z,21.93
2018-04-08T12:48:57.712Z,21.87
2018-04-08T12:50:07.372Z,21.87
2018-04-08T12:51:16.968Z,21.88
2018-04-08T12:52:27.258Z,21.9
2018-04-08T12:53:37.954Z,21.94
2018-04-08T12:54:48.407Z,21.93
2018-04-08T12:55:58.632Z,21.88
2018-04-08T12:57:08.831Z,21.86
2018-04-08T12:58:19.655Z,21.73
2018-04-08T12:59:29.928Z,21.78
2018-04-08T13:00:40.146Z,21.71
2018-04-08T13:01:50.951Z,21.53
2018-04-08T13:03:01.428Z,21.4
2018-04-08T13:04:11.650Z,21.33
2018-04-08T13:05:21.700Z,21.38
2018-04-08T13:06:32.267Z,21.19
2018-04-08T13:07:42.530Z,21.09
2018-04-08T13:08:53.016Z,20.94
2018-04-08T13:10:03.255Z,20.81
2018-04-08T13:11:13.480Z,20.81
2018-04-08T13:12:23.720Z,20.82
2018-04-08T13:13:33.655Z,20.96
2018-04-08T13:14:43.897Z,20.85
2018-04-08T13:15:54.293Z,20.85
2018-04-08T13:17:04.543Z,20.79
2018-04-08T13:18:14.804Z,20.63
2018-04-08T13:19:25.053Z,20.57
2018-04-08T13:20:35.038Z,20.53
2018-04-08T13:21:45.027Z,20.35
2018-04-08T13:22:55.265Z,20.3
2018-04-08T13:24:05.485Z,20.24
2018-04-08T13:25:15.702Z,20.08
2018-04-08T13:26:26.107Z,20.08
2018-04-08T13:27:36.492Z,19.97
2018-04-08T13:28:46.452Z,20.03
2018-04-08T13:29:56.637Z,20.07
2018-04-08T13:31:06.991Z,19.97
2018-04-08T13:32:16.926Z,19.95
2018-04-08T13:33:28.106Z,20
2018-04-08T13:34:38.039Z,19.9
2018-04-08T13:35:48.227Z,19.86
2018-04-08T13:36:58.209Z,19.92
2018-04-08T13:38:08.037Z,19.8
2018-04-08T13:39:18.516Z,19.73
2018-04-08T13:40:28.833Z,19.74
2018-04-08T13:41:38.803Z,19.71
2018-04-08T13:42:48.773Z,19.74
2018-04-08T13:43:59.007Z,19.74
2018-04-08T13:45:09.222Z,19.64
2018-04-08T13:46:19.483Z,19.74
2018-04-08T13:47:29.409Z,19.7
2018-04-08T13:48:39.136Z,19.63
2018-04-08T13:49:49.366Z,19.68
2018-04-08T13:50:59.559Z,19.52
2018-04-08T13:52:09.784Z,19.52
2018-04-08T13:53:19.267Z,19.46
2018-04-08T13:54:29.575Z,19.42
2018-04-08T13:55:39.438Z,19.45
2018-04-08T13:56:49.130Z,19.48
2018-04-08T13:57:59.347Z,19.48
2018-04-08T13:59:09.544Z,19.55
2018-04-08T14:00:19.759Z,19.5
2018-04-08T14:01:30.116Z,19.48
2018-04-08T14:02:40.377Z,19.56
2018-04-08T14:03:50.549Z,19.53
2018-04-08T14:05:00.219Z,19.58
2018-04-08T14:06:10.664Z,19.46
2018-04-08T14:07:20.971Z,19.42
2018-04-08T14:08:31.298Z,19.39
2018-04-08T14:09:41.578Z,19.4
2018-04-08T14:10:51.774Z,19.35
2018-04-08T14:12:01.978Z,19.35
2018-04-08T14:13:12.182Z,19.4
2018-04-08T14:14:22.561Z,19.39
2018-04-08T14:15:32.388Z,19.37
2018-04-08T14:16:42.219Z,19.35
2018-04-08T14:17:52.433Z,19.34
2018-04-08T14:19:02.770Z,19.34
2018-04-08T14:20:13.032Z,19.45
2018-04-08T14:21:23.286Z,19.48
2018-04-08T14:22:33.464Z,19.46
2018-04-08T14:23:43.376Z,19.42
2018-04-08T14:24:52.866Z,19.43
2018-04-08T14:26:03.138Z,19.33
2018-04-08T14:27:13.032Z,19.43
2018-04-08T14:28:23.205Z,19.4
2018-04-08T14:29:33.443Z,19.43
2018-04-08T14:30:43.699Z,19.43
2018-04-08T14:31:53.669Z,19.39
2018-04-08T14:33:03.620Z,19.28
2018-04-08T14:34:12.964Z,19.28
2018-04-08T14:35:22.619Z,19.27
2018-04-08T14:36:32.500Z,19.25
2018-04-08T14:37:42.548Z,19.24
2018-04-08T14:38:52.773Z,19.21
2018-04-08T14:40:02.969Z,19.33
2018-04-08T14:41:12.688Z,19.25
2018-04-08T14:42:22.655Z,19.25
2018-04-08T14:43:32.660Z,19.3
2018-04-08T14:44:42.906Z,19.24
2018-04-08T14:45:53.145Z,19.27
2018-04-08T14:47:03.386Z,19.21
2018-04-08T14:48:13.570Z,19.24
2018-04-08T14:49:24.078Z,19.19
2018-04-08T14:50:34.329Z,19.13
2018-04-08T14:51:44.606Z,19.09
2018-04-08T14:52:54.841Z,18.95
2018-04-08T14:54:05.142Z,19.06
2018-04-08T14:55:14.948Z,19.03
2018-04-08T14:56:25.222Z,19.02
2018-04-08T14:57:36.180Z,19.08
2018-04-08T14:58:46.513Z,19.02
2018-04-08T14:59:57.148Z,18.98
2018-04-08T15:01:07.363Z,19.02
2018-04-08T15:02:17.770Z,18.94
2018-04-08T15:03:27.496Z,18.91
2018-04-08T15:04:37.137Z,18.87
2018-04-08T15:05:47.406Z,18.8
2018-04-08T15:06:57.358Z,18.65
2018-04-08T15:08:07.719Z,18.69
2018-04-08T15:09:17.652Z,18.69
2018-04-08T15:10:27.878Z,18.69
2018-04-08T15:11:38.079Z,18.75
2018-04-08T15:12:48.287Z,18.69
2018-04-08T15:13:58.524Z,18.67
2018-04-08T15:15:08.739Z,18.76
2018-04-08T15:16:18.927Z,18.76
2018-04-08T15:17:29.122Z,18.72
2018-04-08T15:18:39.334Z,18.67
2018-04-08T15:19:49.514Z,18.62
2018-04-08T15:20:59.710Z,18.56
2018-04-08T15:22:09.386Z,18.57